createdAt,value
2022-12-07T06:16:45.469Z,1004.34
2022-12-07T06:26:45.350Z,1004.37
2022-12-07T06:36:45.413Z,1004.37
2022-12-07T06:46:45.364Z,1004.52
2022-12-07T06:56:45.339Z,1004.48
2022-12-07T07:06:45.400Z,1004.53
2022-12-07T07:16:45.407Z,1004.62
2022-12-07T07:26:45.529Z,1004.63
2022-12-07T07:36:45.494Z,1004.71
2022-12-07T07:46:45.669Z,1004.73
2022-12-07T07:56:45.512Z,1004.85
2022-12-07T08:06:45.595Z,1004.88
2022-12-07T08:16:45.548Z,1004.94
2022-12-07T08:26:45.508Z,1004.94
2022-12-07T08:36:45.586Z,1004.93
2022-12-07T08:46:45.472Z,1004.84
2022-12-07T08:56:45.627Z,1004.93
2022-12-07T09:06:45.885Z,1004.93
2022-12-07T09:16:45.519Z,1005.02
2022-12-07T09:26:45.511Z,1005.10
2022-12-07T09:36:45.542Z,1004.97
2022-12-07T09:46:45.393Z,1005.14
2022-12-07T09:56:45.488Z,1005.25
2022-12-07T10:06:45.438Z,1005.19
2022-12-07T10:16:45.548Z,1005.14
2022-12-07T10:26:45.566Z,1005.20
2022-12-07T10:36:45.540Z,1005.30
2022-12-07T10:46:45.573Z,1005.30
2022-12-07T10:56:51.023Z,1005.24
2022-12-07T11:06:45.526Z,1005.17
2022-12-07T11:16:45.384Z,1005.22
2022-12-07T11:26:45.282Z,1005.12
2022-12-07T11:36:45.516Z,1005.09
2022-12-07T11:46:45.673Z,1005.18
2022-12-07T11:56:45.547Z,1005.11
2022-12-07T12:06:45.696Z,1005.10
2022-12-07T12:16:45.598Z,1004.88
2022-12-07T12:26:45.524Z,1005.01
2022-12-07T12:36:45.389Z,1004.95
2022-12-07T12:46:49.663Z,1004.74
2022-12-07T12:56:45.648Z,1004.74
2022-12-07T13:06:45.581Z,1004.61
2022-12-07T13:16:45.394Z,1004.53
2022-12-07T13:26:45.402Z,1004.49
2022-12-07T13:36:45.468Z,1004.39
2022-12-07T13:46:45.504Z,1004.41
2022-12-07T13:56:45.273Z,1004.39
2022-12-07T14:06:45.467Z,1004.42
2022-12-07T14:16:45.601Z,1004.48
2022-12-07T14:26:45.282Z,1004.47
2022-12-07T14:36:45.480Z,1004.37
2022-12-07T14:46:45.658Z,1004.30
2022-12-07T14:56:45.527Z,1004.34
2022-12-07T15:06:45.368Z,1004.27
2022-12-07T15:17:07.817Z,1004.34
2022-12-07T15:26:45.362Z,1004.68
2022-12-07T15:36:45.439Z,1004.76
2022-12-07T15:46:45.532Z,1004.65
2022-12-07T15:56:45.562Z,1004.67
2022-12-07T16:06:45.435Z,1004.48
2022-12-07T16:16:45.309Z,1004.40
2022-12-07T16:26:50.005Z,1004.25
2022-12-07T16:37:04.655Z,1004.25
2022-12-07T16:46:45.442Z,1004.18
2022-12-07T16:56:45.433Z,1004.14
2022-12-07T17:06:45.427Z,1004.15
2022-12-07T17:16:45.633Z,1003.92
2022-12-07T17:26:45.532Z,1003.99
2022-12-07T17:36:45.388Z,1004.08
2022-12-07T17:46:45.459Z,1004.01
2022-12-07T17:56:45.488Z,1003.84
2022-12-07T18:06:48.973Z,1003.78
2022-12-07T18:16:45.447Z,1003.64
2022-12-07T18:26:45.400Z,1003.49
2022-12-07T18:36:45.209Z,1003.40
2022-12-07T18:46:45.320Z,1003.29
2022-12-07T18:56:45.299Z,1003.27
2022-12-07T19:06:45.352Z,1003.25
2022-12-07T19:16:45.468Z,1003.12
